This is the latest recevied weather packets stored in our database for station/object VK5GR-12. If no packets are shown the sender has not sent any weather packets the latest 10 day(s).
| Time | Temp. | Humidity | Pressure | Rain* | Wind** | Luminosity | Snow |
|---|---|---|---|---|---|---|---|
| 1778078388 | 12.22° C | 64% | 1026.8 hPa | 0 mm | - | 0 W/m² | - |
| 1778077486 | 12.22° C | 66% | 1026.8 hPa | 0 mm | - | 0 W/m² | - |
| 1778076586 | 12.22° C | 65% | 1026.7 hPa | 0 mm | - | 0 W/m² | - |
| 1778075683 | 12.22° C | 68% | 1026.6 hPa | 0 mm | - | 0 W/m² | - |
| 1778074777 | 12.22° C | 68% | 1026.6 hPa | 0 mm | - | 0 W/m² | - |
| 1778073874 | 12.22° C | 69% | 1026.5 hPa | 0 mm | - | 0 W/m² | - |
| 1778072971 | 12.22° C | 71% | 1026.3 hPa | 0 mm | - | 0 W/m² | - |
| 1778072069 | 12.78° C | 70% | 1026.3 hPa | 0 mm | - | 0 W/m² | - |
| 1778071167 | 12.78° C | 72% | 1026 hPa | 0 mm | - | 0 W/m² | - |
| 1778070265 | 12.78° C | 71% | 1026 hPa | 0 mm | - | 0 W/m² | - |
| 1778069363 | 13.33° C | 70% | 1025.8 hPa | 0 mm | - | 0 W/m² | - |
| 1778068461 | 13.33° C | 71% | 1025.5 hPa | 0 mm | - | 0 W/m² | - |
| 1778067561 | 12.78° C | 77% | 1025.8 hPa | 0 mm | - | 0 W/m² | - |
| 1778066658 | 12.78° C | 79% | 1025.5 hPa | 0 mm | - | 0 W/m² | - |
| 1778065756 | 12.78° C | 81% | 1025.4 hPa | 0 mm | - | 0 W/m² | - |
| 1778064852 | 12.78° C | 81% | 1025 hPa | 0 mm | - | 0 W/m² | - |
| 1778063951 | 13.33° C | 81% | 1024.9 hPa | 0 mm | - | 0 W/m² | - |
| 1778063049 | 13.89° C | 81% | 1024.8 hPa | 0 mm | - | 0 W/m² | - |
| 1778062145 | 13.89° C | 81% | 1024.5 hPa | 0 mm | - | 0 W/m² | - |
| 1778061246 | 13.89° C | 83% | 1024.3 hPa | 0 mm | - | 0 W/m² | - |
| 1778060344 | 14.44° C | 83% | 1024.1 hPa | 0 mm | - | 0 W/m² | - |
| 1778059443 | 14.44° C | 83% | 1023.8 hPa | 0 mm | - | 0 W/m² | - |
| 1778058540 | 15° C | 84% | 1023.5 hPa | 0 mm | - | 0 W/m² | - |
| 1778057636 | 15° C | 82% | 1023.4 hPa | 0 mm | - | 0 W/m² | - |
| 1778056732 | 15° C | 81% | 1022.9 hPa | 0 mm | - | 0 W/m² | - |
* Rain latest hour (hover to see other rain measurements)
** Current wind speed in m/s (hover to see current wind gust speed)